Time;durP1;ratioP1;P1;durP2;ratioP2;P2;SDS_P1;SDS_P2;PMS_P1;PMS_P2;Temp;Humidity;BMP_temperature;BMP_pressure;BME280_temperature;BME280_humidity;BME280_pressure;Samples;Min_cycle;Max_cycle;Signal;HPM_P1;HPM_P2
2023/10/21 00:01:42;;;;;;;1.55;0.47;;;12.30;99.90;;;;;;5112338;28;20028;-81
2023/10/21 00:04:08;;;;;;;0.95;0.40;;;12.30;99.90;;;;;;5093724;28;20448;-80
2023/10/21 00:06:34;;;;;;;0.60;0.40;;;12.20;99.90;;;;;;5111764;28;20043;-78
2023/10/21 00:09:00;;;;;;;1.65;0.40;;;12.20;99.90;;;;;;5093795;28;20024;-79
2023/10/21 00:11:26;;;;;;;1.50;0.50;;;12.30;99.90;;;;;;5111871;28;20036;-80
2023/10/21 00:13:51;;;;;;;1.23;0.40;;;12.40;99.90;;;;;;5112050;28;20023;-79
2023/10/21 00:16:17;;;;;;;0.40;0.35;;;12.60;99.90;;;;;;5111742;28;20451;-78
2023/10/21 00:18:42;;;;;;;0.98;0.55;;;12.80;99.90;;;;;;5093304;28;20048;-77
2023/10/21 00:21:08;;;;;;;1.75;0.73;;;13.10;99.90;;;;;;5112229;28;20084;-77
2023/10/21 00:23:34;;;;;;;0.70;0.38;;;13.30;99.90;;;;;;5111571;28;20024;-79
2023/10/21 00:26:03;;;;;;;2.75;0.32;;;13.50;99.90;;;;;;5112215;28;20798;-77
2023/10/21 00:28:29;;;;;;;0.88;0.32;;;13.60;99.90;;;;;;5109926;28;20023;-77
2023/10/21 00:30:54;;;;;;;1.75;0.30;;;13.60;99.90;;;;;;5111968;28;20023;-79
2023/10/21 00:33:20;;;;;;;2.17;0.45;;;13.80;99.90;;;;;;5111220;28;20080;-77
2023/10/21 00:35:46;;;;;;;0.70;0.30;;;14.00;99.90;;;;;;5112145;28;20016;-75
2023/10/21 00:38:12;;;;;;;4.43;0.50;;;14.20;99.90;;;;;;5111986;28;20396;-75
2023/10/21 00:40:38;;;;;;;0.63;0.30;;;14.20;99.90;;;;;;5111058;28;20439;-79
2023/10/21 00:43:04;;;;;;;1.33;0.30;;;14.10;99.90;;;;;;5111466;28;20035;-78
2023/10/21 00:45:30;;;;;;;2.40;0.30;;;14.10;99.90;;;;;;5111307;28;20031;-79
2023/10/21 00:47:56;;;;;;;1.85;0.57;;;14.20;99.90;;;;;;5112120;28;20073;-77
2023/10/21 00:50:22;;;;;;;0.77;0.30;;;14.20;99.90;;;;;;5110272;28;20043;-80
2023/10/21 00:52:48;;;;;;;0.47;0.28;;;14.20;99.90;;;;;;5110813;28;20027;-80
2023/10/21 00:55:14;;;;;;;0.93;0.45;;;14.00;99.90;;;;;;5111374;28;20099;-77
2023/10/21 00:57:40;;;;;;;0.50;0.20;;;14.00;99.90;;;;;;5110870;28;20027;-78
2023/10/21 01:00:11;;;;;;;1.00;0.32;;;13.90;99.90;;;;;;5092646;28;20023;-77
2023/10/21 01:02:38;;;;;;;1.95;0.25;;;13.90;99.90;;;;;;5107117;28;20667;-78
2023/10/21 01:05:05;;;;;;;0.30;0.20;;;14.10;99.90;;;;;;5106433;28;20035;-78
2023/10/21 01:07:34;;;;;;;0.50;0.30;;;14.20;99.90;;;;;;5110672;28;20111;-78
2023/10/21 01:10:04;;;;;;;1.10;0.30;;;14.10;99.90;;;;;;5111418;28;20026;-79
2023/10/21 01:12:30;;;;;;;0.68;0.30;;;14.10;99.90;;;;;;5110734;28;20345;-80
2023/10/21 01:14:56;;;;;;;1.75;0.40;;;14.00;99.90;;;;;;5111316;28;20043;-80
2023/10/21 01:17:21;;;;;;;2.55;0.50;;;14.00;99.90;;;;;;5091159;28;20069;-78
2023/10/21 01:19:48;;;;;;;1.33;0.38;;;14.10;99.90;;;;;;5126970;27;20023;-78
2023/10/21 01:22:14;;;;;;;1.23;0.50;;;14.10;99.90;;;;;;5114489;27;20520;-80
2023/10/21 01:24:40;;;;;;;0.70;0.40;;;14.00;99.90;;;;;;5119831;27;20047;-79
2023/10/21 01:27:05;;;;;;;0.73;0.28;;;14.00;99.90;;;;;;5111015;28;20023;-79
2023/10/21 01:29:31;;;;;;;1.52;0.50;;;14.00;99.90;;;;;;5109487;28;20024;-80
2023/10/21 01:31:56;;;;;;;0.68;0.45;;;13.80;99.90;;;;;;5110338;28;20092;-78
2023/10/21 01:34:22;;;;;;;0.68;0.28;;;13.90;99.90;;;;;;5091385;28;20035;-79
2023/10/21 01:36:48;;;;;;;1.67;0.40;;;13.80;99.90;;;;;;5109976;28;20031;-80
2023/10/21 01:39:14;;;;;;;1.02;0.30;;;13.70;99.90;;;;;;5109469;28;20016;-78
2023/10/21 01:41:40;;;;;;;0.77;0.40;;;13.60;99.90;;;;;;5110022;28;20028;-79
2023/10/21 01:44:05;;;;;;;4.43;0.50;;;13.50;99.90;;;;;;5110587;28;20088;-77
2023/10/21 01:46:31;;;;;;;2.30;0.25;;;13.40;99.90;;;;;;5109447;28;20365;-80
2023/10/21 01:48:57;;;;;;;8.35;0.40;;;13.30;99.90;;;;;;5092311;28;20031;-76
2023/10/21 01:51:22;;;;;;;1.83;0.60;;;13.40;99.90;;;;;;5109229;28;20114;-77
2023/10/21 01:53:48;;;;;;;2.13;0.38;;;13.40;99.90;;;;;;5091254;28;20077;-77
2023/10/21 01:56:14;;;;;;;1.02;0.30;;;13.40;99.90;;;;;;5110336;28;20024;-79
2023/10/21 01:58:39;;;;;;;0.43;0.32;;;13.60;99.90;;;;;;5109148;28;20016;-80
2023/10/21 02:01:11;;;;;;;1.65;0.40;;;13.70;99.90;;;;;;5091778;28;20367;-78
2023/10/21 02:03:41;;;;;;;1.23;0.50;;;13.70;99.90;;;;;;5109065;28;20027;-79
2023/10/21 02:06:07;;;;;;;3.78;0.68;;;13.50;99.90;;;;;;5109791;28;20024;-80
2023/10/21 02:08:33;;;;;;;1.15;0.45;;;13.40;99.90;;;;;;5109421;28;20031;-79
2023/10/21 02:10:59;;;;;;;2.60;0.50;;;13.30;99.90;;;;;;5110442;28;20341;-80
2023/10/21 02:13:25;;;;;;;2.40;0.52;;;13.30;99.90;;;;;;5109469;28;20032;-78
2023/10/21 02:15:50;;;;;;;0.60;0.38;;;13.40;99.90;;;;;;5091268;28;20034;-79
2023/10/21 02:18:17;;;;;;;2.83;0.50;;;13.40;99.90;;;;;;5109685;28;20036;-78
2023/10/21 02:20:43;;;;;;;2.15;0.60;;;13.30;99.90;;;;;;5109133;28;20720;-82
2023/10/21 02:23:08;;;;;;;2.15;0.60;;;13.30;99.90;;;;;;5109502;28;20508;-79
2023/10/21 02:25:34;;;;;;;2.72;1.20;;;13.40;99.90;;;;;;5109469;28;20039;-79
2023/10/21 02:28:03;;;;;;;2.05;0.60;;;13.50;99.90;;;;;;5109791;28;20077;-80
2023/10/21 02:30:29;;;;;;;1.60;0.50;;;13.60;99.90;;;;;;5107847;28;20064;-80
2023/10/21 02:32:55;;;;;;;3.78;0.70;;;13.50;99.90;;;;;;5108437;28;20034;-78
2023/10/21 02:35:21;;;;;;;0.90;0.50;;;13.70;99.90;;;;;;5108413;28;20035;-78
2023/10/21 02:37:47;;;;;;;1.13;0.40;;;13.70;99.90;;;;;;5108833;28;20023;-79
2023/10/21 02:40:15;;;;;;;1.23;0.35;;;13.60;99.90;;;;;;5090464;28;20020;-80
2023/10/21 02:42:42;;;;;;;0.85;0.35;;;13.40;99.90;;;;;;5108478;28;20244;-80
2023/10/21 02:45:08;;;;;;;3.30;0.60;;;13.50;99.90;;;;;;5109709;28;20027;-80
2023/10/21 02:47:34;;;;;;;1.02;0.43;;;13.40;99.90;;;;;;5108504;28;20024;-80
2023/10/21 02:49:59;;;;;;;1.35;0.45;;;13.50;99.90;;;;;;5108525;28;20032;-79
2023/10/21 02:52:25;;;;;;;2.58;0.40;;;13.40;99.90;;;;;;5090281;28;20736;-78
2023/10/21 02:54:51;;;;;;;0.60;0.38;;;13.40;99.90;;;;;;5109299;28;20023;-77
2023/10/21 02:57:16;;;;;;;1.15;0.40;;;13.40;99.90;;;;;;5109449;28;20011;-80
2023/10/21 02:59:42;;;;;;;0.50;0.40;;;13.20;99.90;;;;;;5108597;28;20077;-78
2023/10/21 03:02:07;;;;;;;1.92;0.50;;;13.30;99.90;;;;;;5109046;28;20027;-79
2023/10/21 03:04:33;;;;;;;2.00;0.40;;;13.20;99.90;;;;;;5107902;28;20035;-79
2023/10/21 03:06:59;;;;;;;1.42;0.43;;;13.20;99.90;;;;;;5097523;28;20020;-79
2023/10/21 03:09:26;;;;;;;0.68;0.38;;;13.30;99.90;;;;;;5109049;28;20031;-76
2023/10/21 03:11:52;;;;;;;1.40;0.43;;;13.30;99.90;;;;;;5109218;28;20036;-80
2023/10/21 03:14:18;;;;;;;1.08;0.38;;;13.20;99.90;;;;;;5109175;28;20123;-80
2023/10/21 03:16:44;;;;;;;1.17;0.40;;;13.20;99.90;;;;;;5107238;28;20542;-79
2023/10/21 03:19:10;;;;;;;0.70;0.32;;;13.30;99.90;;;;;;5108315;28;20048;-80
2023/10/21 03:21:35;;;;;;;0.50;0.32;;;13.20;99.90;;;;;;5107658;28;20047;-80
2023/10/21 03:24:01;;;;;;;2.05;0.45;;;13.20;99.90;;;;;;5109392;28;20435;-79
2023/10/21 03:26:26;;;;;;;0.82;0.50;;;13.40;99.90;;;;;;5107900;28;20032;-76
2023/10/21 03:28:52;;;;;;;0.90;0.40;;;13.30;99.90;;;;;;5109041;28;20047;-81
2023/10/21 03:31:20;;;;;;;0.35;0.20;;;13.20;99.90;;;;;;5108848;28;20027;-79
2023/10/21 03:33:45;;;;;;;0.95;0.50;;;13.20;99.90;;;;;;5092903;28;20138;-78
2023/10/21 03:36:11;;;;;;;0.50;0.30;;;13.30;99.90;;;;;;5108711;28;20445;-79
2023/10/21 03:38:37;;;;;;;1.55;0.30;;;13.30;99.90;;;;;;5107984;28;20024;-80
2023/10/21 03:41:05;;;;;;;0.52;0.30;;;13.20;99.90;;;;;;5107833;28;20106;-81
2023/10/21 03:43:31;;;;;;;0.68;0.30;;;13.20;99.90;;;;;;5107283;28;20089;-80
2023/10/21 03:46:01;;;;;;;3.65;0.40;;;13.20;99.90;;;;;;5108720;28;20028;-81
2023/10/21 03:48:26;;;;;;;0.88;0.30;;;13.20;99.90;;;;;;5108036;28;20417;-77
2023/10/21 03:50:52;;;;;;;0.22;0.20;;;13.20;99.90;;;;;;5107919;28;20019;-79
2023/10/21 03:53:18;;;;;;;0.82;0.30;;;13.30;99.90;;;;;;5108150;28;20027;-79
2023/10/21 03:55:44;;;;;;;0.50;0.30;;;13.30;99.90;;;;;;5107844;28;20027;-81
2023/10/21 03:58:11;;;;;;;2.88;0.40;;;13.30;99.90;;;;;;5108249;28;20028;-79
2023/10/21 04:00:38;;;;;;;0.70;0.20;;;13.30;99.90;;;;;;5108071;28;20027;-80
2023/10/21 04:03:04;;;;;;;0.55;0.30;;;13.10;99.90;;;;;;5090298;28;20458;-81
2023/10/21 04:05:31;;;;;;;0.82;0.40;;;13.10;99.90;;;;;;5107361;28;20032;-80
2023/10/21 04:07:56;;;;;;;3.90;0.40;;;13.00;99.90;;;;;;5108376;28;20059;-78
2023/10/21 04:10:22;;;;;;;2.45;0.32;;;13.00;99.90;;;;;;5108343;28;20051;-78
2023/10/21 04:12:48;;;;;;;0.70;0.30;;;12.90;99.90;;;;;;5107344;28;20028;-78
2023/10/21 04:15:13;;;;;;;0.65;0.30;;;12.90;99.90;;;;;;5109406;28;20020;-80
2023/10/21 04:17:39;;;;;;;0.95;0.30;;;12.80;99.90;;;;;;5110872;28;20051;-79
2023/10/21 04:20:06;;;;;;;0.22;0.20;;;12.80;99.90;;;;;;5111902;28;20070;-79
2023/10/21 04:22:32;;;;;;;0.57;0.20;;;12.80;99.90;;;;;;5111239;28;20024;-80
2023/10/21 04:24:57;;;;;;;2.72;0.60;;;12.80;99.90;;;;;;5111609;28;20072;-79
2023/10/21 04:27:23;;;;;;;3.33;0.38;;;12.90;99.90;;;;;;5111574;28;20035;-80
2023/10/21 04:29:49;;;;;;;0.93;0.38;;;12.90;99.90;;;;;;5111124;28;20039;-77
2023/10/21 04:32:15;;;;;;;0.95;0.20;;;12.90;99.90;;;;;;5112123;28;20069;-81
2023/10/21 04:34:41;;;;;;;1.98;0.40;;;12.90;99.90;;;;;;5110799;28;20056;-81
2023/10/21 04:37:06;;;;;;;1.05;0.30;;;13.00;99.90;;;;;;5111356;28;20165;-78
2023/10/21 04:39:33;;;;;;;2.63;0.40;;;13.00;99.90;;;;;;5091927;28;20076;-79
2023/10/21 04:41:58;;;;;;;0.85;0.40;;;12.90;99.90;;;;;;5110654;28;20012;-78
2023/10/21 04:44:24;;;;;;;0.50;0.30;;;12.90;99.90;;;;;;5110067;28;20037;-78
2023/10/21 04:46:49;;;;;;;0.57;0.32;;;13.00;99.90;;;;;;5110088;28;20032;-77
2023/10/21 04:49:15;;;;;;;0.30;0.20;;;13.10;99.90;;;;;;5110229;28;20388;-77
2023/10/21 04:51:41;;;;;;;0.75;0.30;;;13.10;99.90;;;;;;5091833;28;20036;-77
2023/10/21 04:54:07;;;;;;;2.35;0.30;;;13.10;99.90;;;;;;5101388;28;20027;-80
2023/10/21 04:56:33;;;;;;;0.30;0.20;;;13.20;99.90;;;;;;5125851;27;20027;-79
2023/10/21 04:58:59;;;;;;;3.97;0.30;;;13.20;99.90;;;;;;5111732;28;20027;-80
2023/10/21 05:01:24;;;;;;;0.73;0.28;;;13.10;99.90;;;;;;5092953;28;20054;-78
2023/10/21 05:03:50;;;;;;;1.00;0.40;;;13.10;99.90;;;;;;5109872;28;20088;-77
2023/10/21 05:06:16;;;;;;;0.65;0.30;;;13.10;99.90;;;;;;5110159;28;20081;-80
2023/10/21 05:08:41;;;;;;;1.55;0.30;;;13.10;99.90;;;;;;5109711;28;20072;-78
2023/10/21 05:11:07;;;;;;;4.50;0.20;;;13.10;99.90;;;;;;5083295;28;20455;-80
2023/10/21 05:13:33;;;;;;;1.05;0.20;;;13.00;99.90;;;;;;5108126;28;20035;-78
2023/10/21 05:15:58;;;;;;;1.05;0.30;;;13.00;99.90;;;;;;5104405;28;20047;-80
2023/10/21 05:18:24;;;;;;;0.63;0.25;;;13.00;99.90;;;;;;5103592;28;20567;-78
2023/10/21 05:20:50;;;;;;;2.83;0.47;;;13.00;99.90;;;;;;5109535;28;20028;-79
2023/10/21 05:23:15;;;;;;;1.33;0.40;;;13.00;99.90;;;;;;5108739;28;20073;-80
2023/10/21 05:25:41;;;;;;;1.92;0.40;;;13.00;99.90;;;;;;5109349;28;20036;-80
2023/10/21 05:28:06;;;;;;;1.48;0.30;;;13.10;99.90;;;;;;5106753;28;20092;-79
2023/10/21 05:30:32;;;;;;;1.67;0.30;;;13.00;99.90;;;;;;5110193;28;20024;-76
2023/10/21 05:32:58;;;;;;;0.95;0.32;;;13.00;99.90;;;;;;5109058;28;20055;-79
2023/10/21 05:35:23;;;;;;;1.30;0.40;;;13.00;99.90;;;;;;5110194;28;20024;-75
2023/10/21 05:37:49;;;;;;;0.60;0.30;;;12.90;99.90;;;;;;5108449;28;20114;-81
2023/10/21 05:40:15;;;;;;;1.10;0.40;;;12.90;99.90;;;;;;5114827;27;20166;-78
2023/10/21 05:42:40;;;;;;;1.02;0.50;;;12.90;99.90;;;;;;5108745;27;20043;-78
2023/10/21 05:45:08;;;;;;;1.52;0.50;;;12.90;99.90;;;;;;5090389;28;20103;-80
2023/10/21 05:47:35;;;;;;;1.00;0.50;;;12.80;99.90;;;;;;5097942;28;20032;-77
2023/10/21 05:50:02;;;;;;;2.28;0.50;;;12.60;99.90;;;;;;5088781;28;20464;-81
2023/10/21 05:52:28;;;;;;;0.77;0.40;;;12.50;99.90;;;;;;5109739;28;20084;-80
2023/10/21 05:54:54;;;;;;;3.55;1.42;;;12.40;99.90;;;;;;5109241;28;20024;-80
2023/10/21 05:57:19;;;;;;;2.35;1.42;;;12.40;99.90;;;;;;5101764;28;20039;-79
2023/10/21 05:59:45;;;;;;;1.33;0.52;;;12.40;99.90;;;;;;5107685;28;20027;-78
2023/10/21 06:02:11;;;;;;;0.77;0.50;;;12.30;99.90;;;;;;5108286;28;20106;-80
2023/10/21 06:04:37;;;;;;;1.30;0.40;;;12.30;99.90;;;;;;5108793;28;20035;-80
2023/10/21 06:07:03;;;;;;;0.88;0.38;;;12.20;99.90;;;;;;5120796;27;20035;-81
2023/10/21 06:09:29;;;;;;;0.60;0.40;;;12.20;99.90;;;;;;5095173;28;20024;-78
2023/10/21 06:11:54;;;;;;;0.88;0.30;;;12.20;99.90;;;;;;5107820;28;20518;-80
2023/10/21 06:14:21;;;;;;;2.42;0.68;;;12.20;99.90;;;;;;5109807;28;20031;-81
2023/10/21 06:16:47;;;;;;;0.57;0.50;;;12.40;99.90;;;;;;5108260;28;20055;-79
2023/10/21 06:19:12;;;;;;;1.23;0.40;;;12.40;99.90;;;;;;5109731;28;20071;-80
2023/10/21 06:21:38;;;;;;;1.40;0.50;;;12.50;99.90;;;;;;5106919;28;20063;-80
2023/10/21 06:24:05;;;;;;;0.73;0.40;;;12.70;99.90;;;;;;5091380;28;20028;-80
2023/10/21 06:26:32;;;;;;;2.78;0.80;;;12.70;99.90;;;;;;5107446;28;20044;-76
2023/10/21 06:28:58;;;;;;;4.45;0.80;;;12.70;99.90;;;;;;5087194;28;20081;-81
2023/10/21 06:31:24;;;;;;;0.70;0.50;;;12.70;99.90;;;;;;5093306;28;20062;-79
2023/10/21 06:33:50;;;;;;;0.80;0.50;;;12.70;99.90;;;;;;5107110;28;20489;-80
2023/10/21 06:36:16;;;;;;;2.90;0.70;;;12.70;99.90;;;;;;5109012;28;20034;-81
2023/10/21 06:38:42;;;;;;;1.27;0.43;;;12.60;99.90;;;;;;5095514;28;20020;-81
2023/10/21 06:41:07;;;;;;;1.38;0.50;;;12.50;99.90;;;;;;5108004;28;20114;-81
2023/10/21 06:43:33;;;;;;;1.30;0.60;;;12.50;99.90;;;;;;5099943;28;20391;-78
2023/10/21 06:45:59;;;;;;;1.23;0.60;;;12.50;99.90;;;;;;5109185;28;20034;-79
2023/10/21 06:48:26;;;;;;;1.98;0.50;;;12.40;99.90;;;;;;5109253;28;20094;-79
2023/10/21 06:50:52;;;;;;;0.93;0.52;;;12.40;99.90;;;;;;5108782;28;20024;-82
2023/10/21 06:53:18;;;;;;;6.85;2.25;;;12.30;99.90;;;;;;5108909;28;20031;-82
2023/10/21 06:55:44;;;;;;;2.30;0.50;;;12.40;99.90;;;;;;5108946;28;20028;-81
2023/10/21 06:58:11;;;;;;;0.93;0.30;;;12.50;99.90;;;;;;5109425;28;20310;-80
2023/10/21 07:00:37;;;;;;;0.60;0.30;;;12.60;99.90;;;;;;5107810;28;20019;-78
2023/10/21 07:03:04;;;;;;;1.10;0.40;;;12.70;99.90;;;;;;5109073;28;20085;-79
2023/10/21 07:05:29;;;;;;;2.47;0.30;;;12.80;99.90;;;;;;5109100;28;20027;-80
2023/10/21 07:07:55;;;;;;;2.40;0.50;;;12.90;99.90;;;;;;5108904;28;20589;-80
2023/10/21 07:10:23;;;;;;;0.57;0.32;;;12.90;99.90;;;;;;5109228;28;20027;-80
2023/10/21 07:12:49;;;;;;;0.73;0.35;;;13.00;99.90;;;;;;5089849;28;20352;-80
2023/10/21 07:15:15;;;;;;;1.95;0.38;;;13.10;99.90;;;;;;5108986;28;20055;-80
2023/10/21 07:17:41;;;;;;;1.77;0.57;;;13.20;99.90;;;;;;5108077;28;20585;-79
2023/10/21 07:20:07;;;;;;;3.45;0.70;;;13.30;99.90;;;;;;5109100;28;20150;-79
2023/10/21 07:22:33;;;;;;;2.25;0.35;;;13.50;99.90;;;;;;5108530;28;20023;-81
2023/10/21 07:24:58;;;;;;;1.85;0.40;;;13.60;99.90;;;;;;5108388;28;20773;-80
2023/10/21 07:27:26;;;;;;;1.00;0.57;;;13.70;99.90;;;;;;5109219;28;20024;-81
2023/10/21 07:29:51;;;;;;;0.63;0.30;;;13.80;99.90;;;;;;5107920;28;20361;-80
2023/10/21 07:32:17;;;;;;;3.63;0.40;;;13.80;99.90;;;;;;5110638;28;20042;-79
2023/10/21 07:34:43;;;;;;;2.63;0.60;;;14.00;99.90;;;;;;5108591;28;20036;-81
2023/10/21 07:37:08;;;;;;;1.00;0.43;;;14.20;99.90;;;;;;5108937;28;20020;-80
2023/10/21 07:39:34;;;;;;;1.65;0.60;;;14.20;99.90;;;;;;5108982;28;20031;-80
2023/10/21 07:42:00;;;;;;;1.88;0.70;;;14.20;99.90;;;;;;5089781;28;20287;-81
2023/10/21 07:44:28;;;;;;;9.93;4.68;;;14.00;99.90;;;;;;5108225;28;20035;-79
2023/10/21 07:46:54;;;;;;;25.52;12.20;;;13.80;99.90;;;;;;5107510;28;20405;-81
2023/10/21 07:49:20;;;;;;;34.00;20.48;;;13.80;99.90;;;;;;5109033;28;20034;-80
2023/10/21 07:51:45;;;;;;;10.30;6.15;;;13.80;99.90;;;;;;5111012;28;20023;-79
2023/10/21 07:54:12;;;;;;;6.68;3.03;;;13.80;99.90;;;;;;5112596;28;20027;-79
2023/10/21 07:56:38;;;;;;;2.20;1.27;;;13.90;99.90;;;;;;5112378;28;20074;-77
2023/10/21 07:59:05;;;;;;;7.63;0.93;;;13.90;99.90;;;;;;5112518;28;20019;-78
2023/10/21 08:01:31;;;;;;;0.80;0.70;;;13.90;99.90;;;;;;5093967;28;20038;-77
2023/10/21 08:03:56;;;;;;;0.80;0.40;;;13.90;99.90;;;;;;5111652;28;20215;-80
2023/10/21 08:06:22;;;;;;;0.30;0.20;;;14.00;99.90;;;;;;5112552;28;20414;-78
2023/10/21 08:08:48;;;;;;;0.73;0.40;;;14.00;99.90;;;;;;5111717;28;20020;-78
2023/10/21 08:11:14;;;;;;;1.73;0.50;;;14.10;99.90;;;;;;5093926;28;20024;-77
2023/10/21 08:13:39;;;;;;;1.17;0.30;;;14.10;99.90;;;;;;5112157;28;20038;-77
2023/10/21 08:16:05;;;;;;;2.70;0.40;;;14.20;99.90;;;;;;5111522;28;20031;-78
2023/10/21 08:18:30;;;;;;;3.97;2.00;;;14.20;99.90;;;;;;5112430;28;20055;-79
2023/10/21 08:20:56;;;;;;;3.00;1.10;;;14.50;99.90;;;;;;5111050;28;20432;-77
2023/10/21 08:23:22;;;;;;;1.98;0.70;;;14.70;99.90;;;;;;5112121;28;20452;-80
2023/10/21 08:25:47;;;;;;;0.98;0.40;;;14.90;99.90;;;;;;5111422;28;20027;-77
2023/10/21 08:28:13;;;;;;;0.40;0.30;;;15.10;99.90;;;;;;5093833;28;20035;-76
2023/10/21 08:30:39;;;;;;;0.70;0.20;;;15.10;99.90;;;;;;5111214;28;20031;-76
2023/10/21 08:33:05;;;;;;;1.30;0.32;;;15.20;99.90;;;;;;5111610;28;20065;-75
2023/10/21 08:35:32;;;;;;;1.52;0.40;;;15.30;99.90;;;;;;5093544;28;20468;-77
2023/10/21 08:37:58;;;;;;;1.75;0.20;;;15.40;99.90;;;;;;5111221;28;20042;-74
2023/10/21 08:40:24;;;;;;;1.80;0.28;;;15.50;99.90;;;;;;5112024;28;20024;-76
2023/10/21 08:42:51;;;;;;;0.52;0.20;;;15.50;99.90;;;;;;5109299;28;20750;-76
2023/10/21 08:45:19;;;;;;;2.42;0.20;;;15.50;99.90;;;;;;5111613;28;20058;-75
2023/10/21 08:47:45;;;;;;;0.70;0.20;;;15.50;99.90;;;;;;5110733;28;20027;-77
2023/10/21 08:50:13;;;;;;;0.35;0.13;;;15.60;99.90;;;;;;5111869;28;20310;-77
2023/10/21 08:52:40;;;;;;;0.88;0.30;;;15.70;99.90;;;;;;5111214;28;20028;-77
2023/10/21 08:55:06;;;;;;;1.25;0.40;;;15.80;99.90;;;;;;5112972;27;20088;-79
2023/10/21 08:57:36;;;;;;;1.02;0.17;;;15.80;99.90;;;;;;5126625;27;20030;-76
2023/10/21 09:00:04;;;;;;;1.65;0.30;;;15.70;99.90;;;;;;5110809;28;20748;-78
2023/10/21 09:02:30;;;;;;;0.65;0.20;;;15.60;99.90;;;;;;5092597;28;20043;-80
2023/10/21 09:04:56;;;;;;;1.17;0.10;;;15.30;99.90;;;;;;5110143;28;20036;-79
2023/10/21 09:09:36;;;;;;;0.50;0.20;;;15.00;99.90;;;;;;5092477;27;20228;-81
2023/10/21 09:12:17;;;;;;;1.02;0.10;;;15.10;99.90;;;;;;5068832;28;20031;-77
2023/10/21 09:14:55;;;;;;;0.30;0.10;;;15.30;99.90;;;;;;5088789;28;20020;-78
2023/10/21 09:17:52;;;;;;;1.80;0.30;;;15.40;99.90;;;;;;5105245;28;20112;-77
2023/10/21 09:20:18;;;;;;;2.50;0.20;;;15.60;99.90;;;;;;5100356;28;20028;-75
2023/10/21 09:22:51;;;;;;;0.28;0.10;;;15.40;99.90;;;;;;5090994;28;20092;-72
2023/10/21 09:25:21;;;;;;;0.95;0.20;;;15.30;99.90;;;;;;5084089;28;20033;-74
2023/10/21 09:27:56;;;;;;;1.60;0.20;;;15.20;99.90;;;;;;5075197;28;20028;-72
2023/10/21 09:30:23;;;;;;;1.33;0.22;;;15.20;99.90;;;;;;5082443;28;20057;-75
2023/10/21 09:32:52;;;;;;;1.45;0.28;;;15.30;99.90;;;;;;5090368;28;20049;-74
2023/10/21 09:35:26;;;;;;;2.67;0.30;;;15.20;99.90;;;;;;5065607;28;20036;-73
2023/10/21 09:37:52;;;;;;;0.55;0.20;;;15.20;99.90;;;;;;5073126;28;20064;-75
2023/10/21 09:40:19;;;;;;;0.77;0.30;;;15.20;99.90;;;;;;5068086;28;20511;-75
2023/10/21 09:42:48;;;;;;;0.20;0.15;;;15.20;99.90;;;;;;5088646;28;20031;-73
2023/10/21 09:45:16;;;;;;;0.82;0.10;;;15.30;99.90;;;;;;5082295;28;20070;-73
2023/10/21 09:47:42;;;;;;;1.33;0.20;;;15.30;99.90;;;;;;5065222;28;20029;-76
2023/10/21 09:50:13;;;;;;;1.75;0.95;;;15.20;99.90;;;;;;5070996;28;20033;-77
2023/10/21 09:52:57;;;;;;;;;;;15.20;99.90;;;;;;5073909;28;20039;-77
2023/10/21 09:55:27;;;;;;;3.70;0.38;;;15.30;99.90;;;;;;5097911;28;19964;-75
2023/10/21 09:57:57;;;;;;;1.80;0.30;;;15.40;99.90;;;;;;5078110;28;20108;-74
2023/10/21 10:00:24;;;;;;;2.83;0.52;;;15.60;99.90;;;;;;5068690;28;20801;-74
2023/10/21 10:02:53;;;;;;;3.70;0.38;;;15.80;99.90;;;;;;5090483;28;20079;-75
2023/10/21 10:05:20;;;;;;;3.25;0.38;;;15.70;99.90;;;;;;5084863;28;20028;-76
2023/10/21 10:07:48;;;;;;;3.53;0.40;;;15.70;99.90;;;;;;5084335;28;20070;-73
2023/10/21 10:10:20;;;;;;;1.33;0.50;;;15.90;99.90;;;;;;5080341;28;20054;-70
2023/10/21 10:13:06;;;;;;;0.75;0.30;;;16.10;99.90;;;;;;5073465;28;20167;-67
2023/10/21 10:15:37;;;;;;;2.83;0.30;;;15.90;99.90;;;;;;5084756;28;20036;-73
2023/10/21 10:18:03;;;;;;;0.98;0.25;;;15.90;99.90;;;;;;5084140;28;20033;-72
2023/10/21 10:20:30;;;;;;;0.77;0.38;;;15.80;99.90;;;;;;5069068;28;20664;-72
2023/10/21 10:23:08;;;;;;;1.48;0.30;;;15.70;99.90;;;;;;5068918;28;20108;-72
2023/10/21 10:25:43;;;;;;;2.05;0.30;;;15.70;99.90;;;;;;5068647;28;20082;-70
2023/10/21 10:28:10;;;;;;;1.83;0.40;;;15.60;99.90;;;;;;5070421;28;20037;-73
2023/10/21 10:30:38;;;;;;;1.33;0.40;;;15.60;99.90;;;;;;5071221;28;20074;-72
2023/10/21 10:33:12;;;;;;;1.08;0.20;;;15.60;99.90;;;;;;5067619;28;20025;-72
2023/10/21 10:35:42;;;;;;;3.65;0.63;;;15.70;99.90;;;;;;5057126;28;20033;-71
2023/10/21 10:38:25;;;;;;;0.85;0.32;;;15.70;99.90;;;;;;5060083;28;20043;-72
2023/10/21 10:41:06;;;;;;;1.20;0.32;;;15.80;99.90;;;;;;5071878;28;20123;-70
2023/10/21 10:43:32;;;;;;;1.15;0.20;;;16.00;99.90;;;;;;5072206;28;20028;-72
2023/10/21 10:46:00;;;;;;;5.43;0.43;;;16.00;99.90;;;;;;5063020;28;20025;-71
2023/10/21 10:48:28;;;;;;;1.45;0.20;;;16.00;99.90;;;;;;5057742;28;20416;-71
2023/10/21 10:51:00;;;;;;;1.75;0.40;;;16.10;99.90;;;;;;5049886;28;20025;-71
2023/10/21 10:53:26;;;;;;;2.38;0.30;;;16.20;99.90;;;;;;5061333;28;20550;-72
2023/10/21 10:55:56;;;;;;;1.83;0.20;;;16.50;99.90;;;;;;5069856;28;20058;-70
2023/10/21 10:58:23;;;;;;;3.50;0.30;;;16.60;99.90;;;;;;5078824;28;20040;-72
2023/10/21 11:00:51;;;;;;;1.50;0.22;;;16.80;99.90;;;;;;5089989;28;20435;-68
2023/10/21 11:03:23;;;;;;;1.10;0.20;;;17.00;99.90;;;;;;5069060;28;20013;-72
2023/10/21 11:05:50;;;;;;;0.70;0.22;;;16.90;99.90;;;;;;5050170;28;20037;-68
2023/10/21 11:08:17;;;;;;;0.90;0.32;;;16.90;99.90;;;;;;5055096;28;20056;-71
2023/10/21 11:10:42;;;;;;;2.75;0.40;;;16.80;99.90;;;;;;5085526;28;20032;-72
2023/10/21 11:13:08;;;;;;;4.80;0.35;;;16.50;99.90;;;;;;5076363;28;20609;-71
2023/10/21 11:15:41;;;;;;;1.00;0.30;;;16.20;99.90;;;;;;5057566;28;20029;-71
2023/10/21 11:18:07;;;;;;;1.35;0.20;;;16.00;99.90;;;;;;5055615;28;20392;-71
2023/10/21 11:20:33;;;;;;;0.88;0.20;;;15.90;99.90;;;;;;5067700;28;20033;-73
2023/10/21 11:23:09;;;;;;;4.78;0.30;;;15.80;99.90;;;;;;5068637;28;20491;-72
2023/10/21 11:25:36;;;;;;;0.88;0.30;;;15.70;99.90;;;;;;5070200;28;20536;-71
2023/10/21 11:28:02;;;;;;;5.38;0.30;;;15.70;99.90;;;;;;5068420;28;20132;-73
2023/10/21 11:30:29;;;;;;;1.67;0.30;;;15.60;99.90;;;;;;5063075;28;20381;-70
2023/10/21 11:32:55;;;;;;;1.63;0.30;;;15.60;99.90;;;;;;5074724;28;20532;-71
2023/10/21 11:35:23;;;;;;;0.68;0.20;;;15.60;99.90;;;;;;5081980;28;20119;-71
2023/10/21 11:37:55;;;;;;;1.95;0.30;;;15.60;99.90;;;;;;5082895;28;20536;-70
2023/10/21 11:40:21;;;;;;;1.50;0.30;;;15.60;99.90;;;;;;5050002;28;20117;-72
2023/10/21 11:43:01;;;;;;;3.03;0.38;;;15.70;99.90;;;;;;5049899;28;20082;-72
2023/10/21 11:45:29;;;;;;;2.03;0.30;;;15.70;99.90;;;;;;5056796;28;20473;-70
2023/10/21 11:47:56;;;;;;;2.15;0.30;;;15.80;99.90;;;;;;5068075;28;20062;-72
2023/10/21 11:50:22;;;;;;;2.15;0.30;;;15.80;99.90;;;;;;5076183;28;20020;-73
2023/10/21 11:52:48;;;;;;;1.17;0.28;;;15.70;99.90;;;;;;5056092;28;20028;-72
2023/10/21 12:01:45;;;;;;;1.80;0.30;;;15.70;99.90;;;;;;5067729;28;20101;-71
2023/10/21 12:16:41;;;;;;;2.65;0.68;;;15.60;99.90;;;;;;5056824;28;20031;-70
2023/10/21 12:40:37;;;;;;;2.25;0.30;;;15.40;99.90;;;;;;5065986;28;20488;-72
2023/10/21 12:44:11;;;;;;;2.17;0.30;;;15.50;99.90;;;;;;5058123;28;20115;-71
2023/10/21 12:46:00;;;;;;;1.42;0.30;;;15.50;99.90;;;;;;5061519;28;20055;-71
2023/10/21 12:48:25;;;;;;;1.75;0.47;;;15.50;99.90;;;;;;5068011;28;20122;-72
2023/10/21 12:50:51;;;;;;;1.80;0.50;;;15.50;99.90;;;;;;5068682;28;20112;-72
2023/10/21 12:53:18;;;;;;;2.78;0.50;;;15.50;99.90;;;;;;5067782;28;20027;-72
2023/10/21 12:55:46;;;;;;;1.45;0.40;;;15.60;99.90;;;;;;5067327;28;20036;-71
2023/10/21 12:58:12;;;;;;;5.30;0.47;;;15.60;99.90;;;;;;5057339;28;20127;-72
2023/10/21 13:00:41;;;;;;;1.33;0.40;;;15.60;99.90;;;;;;5088655;28;20020;-71
2023/10/21 13:03:10;;;;;;;2.75;0.50;;;15.60;99.90;;;;;;5078971;28;20032;-70
2023/10/21 13:05:37;;;;;;;3.25;0.40;;;15.60;99.90;;;;;;5068461;28;20036;-71
2023/10/21 13:08:07;;;;;;;1.60;0.38;;;15.60;99.90;;;;;;5067333;28;20076;-71
2023/10/21 13:10:33;;;;;;;3.88;0.95;;;15.60;99.90;;;;;;5071231;28;20099;-71
2023/10/21 13:13:01;;;;;;;1.00;0.25;;;15.60;99.90;;;;;;5087997;28;20119;-68
2023/10/21 13:15:27;;;;;;;1.60;0.43;;;15.60;99.90;;;;;;5079241;28;20047;-71
2023/10/21 13:17:52;;;;;;;1.38;0.60;;;15.60;99.90;;;;;;5059476;28;20032;-71
2023/10/21 13:20:18;;;;;;;2.58;0.52;;;15.60;99.90;;;;;;5067439;28;20031;-69
2023/10/21 13:22:44;;;;;;;1.67;0.47;;;15.60;99.90;;;;;;5075282;28;20475;-70
2023/10/21 13:25:10;;;;;;;1.05;0.40;;;15.60;99.90;;;;;;5067427;28;20086;-69
2023/10/21 13:27:36;;;;;;;2.22;0.60;;;15.60;99.90;;;;;;5068314;28;20036;-71
2023/10/21 13:30:10;;;;;;;1.77;0.50;;;15.60;99.90;;;;;;5073742;28;20463;-70